createdAt,value
2022-09-15T00:01:01.388Z,0
2022-09-15T00:06:41.779Z,0
2022-09-15T00:12:04.248Z,0
2022-09-15T00:17:26.815Z,0
2022-09-15T00:22:49.593Z,0
2022-09-15T00:28:12.146Z,0
2022-09-15T00:33:34.616Z,0
2022-09-15T00:39:03.025Z,0
2022-09-15T00:45:04.025Z,0
2022-09-15T00:50:35.345Z,0
2022-09-15T00:55:58.784Z,0
2022-09-15T01:01:32.615Z,0
2022-09-15T01:06:55.901Z,0
2022-09-15T01:12:18.191Z,0
2022-09-15T01:17:43.077Z,0
2022-09-15T01:23:05.545Z,0
2022-09-15T01:28:35.629Z,0
2022-09-15T01:33:58.202Z,0
2022-09-15T01:39:24.360Z,0
2022-09-15T01:44:47.046Z,0
2022-09-15T01:50:09.824Z,0
2022-09-15T01:55:32.466Z,0
2022-09-15T02:00:57.953Z,0
2022-09-15T02:06:21.302Z,0
2022-09-15T02:11:43.678Z,0
2022-09-15T02:17:09.175Z,0
2022-09-15T02:22:31.529Z,0
2022-09-15T02:28:15.416Z,0
2022-09-15T02:33:37.617Z,0
2022-09-15T02:39:00.466Z,0
2022-09-15T02:44:25.384Z,0
2022-09-15T02:49:50.469Z,0
2022-09-15T02:55:13.200Z,0
2022-09-15T03:01:13.495Z,0
2022-09-15T03:06:36.267Z,0
2022-09-15T03:11:59.012Z,0
2022-09-15T03:17:21.322Z,0
2022-09-15T03:28:24.360Z,0
2022-09-15T03:33:47.238Z,0
2022-09-15T03:39:10.012Z,0
2022-09-15T03:44:33.031Z,0
2022-09-15T03:49:55.454Z,0
2022-09-15T03:55:17.951Z,0
2022-09-15T04:00:40.562Z,0
2022-09-15T04:06:04.009Z,0
2022-09-15T04:11:32.824Z,0
2022-09-15T04:16:56.501Z,0
2022-09-15T04:22:18.753Z,0
2022-09-15T04:27:41.377Z,0
2022-09-15T04:33:03.756Z,0
2022-09-15T04:38:28.715Z,0
2022-09-15T04:43:53.963Z,0
2022-09-15T04:49:16.582Z,0
2022-09-15T04:54:50.644Z,0
2022-09-15T05:00:13.017Z,0
2022-09-15T05:05:37.922Z,0
2022-09-15T05:11:00.453Z,0
2022-09-15T05:16:33.602Z,0
2022-09-15T05:22:05.949Z,0.1
2022-09-15T05:27:28.246Z,0.1
2022-09-15T05:32:50.749Z,0.1
2022-09-15T05:38:16.353Z,0.1
2022-09-15T05:43:38.956Z,0.1
2022-09-15T05:49:07.513Z,0.2
2022-09-15T05:54:30.406Z,0.2
2022-09-15T05:59:52.866Z,0.2
2022-09-15T06:05:21.442Z,0.3
2022-09-15T06:10:43.969Z,0.4
2022-09-15T06:16:06.429Z,0.5
2022-09-15T06:21:38.616Z,0.6
2022-09-15T06:27:01.203Z,0.8
2022-09-15T06:32:26.784Z,0.7
2022-09-15T06:37:57.260Z,0.8
2022-09-15T06:43:20.004Z,0.6
2022-09-15T06:48:45.210Z,0.5
2022-09-15T06:54:14.309Z,0.7
2022-09-15T06:59:37.332Z,0.7
2022-09-15T07:04:59.843Z,0.8
2022-09-15T07:10:22.356Z,0.8
2022-09-15T07:15:44.896Z,0.8
2022-09-15T07:21:07.386Z,0.8
2022-09-15T07:26:29.988Z,0.6
2022-09-15T07:31:55.991Z,0.7
2022-09-15T07:37:19.085Z,0.9
2022-09-15T07:42:41.865Z,1.2
2022-09-15T07:48:04.708Z,1.5
2022-09-15T07:53:27.298Z,1.8
2022-09-15T07:58:52.861Z,1.9
2022-09-15T08:04:15.174Z,1.6
2022-09-15T08:09:37.735Z,1.5
2022-09-15T08:15:05.781Z,1.4
2022-09-15T08:20:28.237Z,1.4
2022-09-15T08:25:50.845Z,1.6
2022-09-15T08:31:19.255Z,0.8
2022-09-15T08:36:41.899Z,1
2022-09-15T08:42:04.374Z,0.9
2022-09-15T08:47:27.038Z,1.6
2022-09-15T08:52:50.570Z,2
2022-09-15T08:58:14.331Z,2.7
2022-09-15T09:03:37.472Z,2.6
2022-09-15T09:08:59.016Z,2.1
2022-09-15T09:14:48.081Z,2.5
2022-09-15T09:20:08.514Z,2
2022-09-15T09:25:31.842Z,3
2022-09-15T09:30:54.084Z,2.2
2022-09-15T09:36:16.234Z,2.1
2022-09-15T09:41:39.459Z,2.5
2022-09-15T09:47:03.830Z,1.9
2022-09-15T09:52:26.847Z,1.5
2022-09-15T09:57:52.529Z,1.3
2022-09-15T10:03:15.007Z,1.4
2022-09-15T10:08:38.185Z,2.2
2022-09-15T10:14:26.078Z,2.8
2022-09-15T10:19:50.493Z,3
2022-09-15T10:25:14.942Z,2.8
2022-09-15T10:30:44.544Z,2.7
2022-09-15T10:36:07.207Z,2.5
2022-09-15T10:41:29.953Z,3.1
2022-09-15T10:46:55.083Z,5.6
2022-09-15T10:52:31.326Z,4.7
2022-09-15T10:58:00.859Z,3.1
2022-09-15T11:03:22.989Z,2.9
2022-09-15T11:08:45.962Z,2.9
2022-09-15T11:14:08.528Z,3.1
2022-09-15T11:19:33.954Z,2.4
2022-09-15T11:24:56.521Z,3.2
2022-09-15T11:30:19.729Z,2.8
2022-09-15T11:35:42.221Z,3.4
2022-09-15T11:41:07.572Z,2.4
2022-09-15T11:46:30.239Z,4.5
2022-09-15T11:51:51.881Z,1.9
2022-09-15T11:57:13.407Z,5
2022-09-15T12:02:37.981Z,1.7
2022-09-15T12:07:59.801Z,1
2022-09-15T12:13:21.667Z,0.8
2022-09-15T12:18:46.653Z,1.3
2022-09-15T12:24:10.197Z,1.8
2022-09-15T12:29:34.959Z,2.7
2022-09-15T12:35:09.031Z,2.8
2022-09-15T12:40:36.344Z,2.2
2022-09-15T12:45:59.379Z,1.4
2022-09-15T12:51:21.229Z,0.9
2022-09-15T12:56:55.509Z,0.5
2022-09-15T13:02:29.306Z,0.4
2022-09-15T13:07:52.345Z,0.7
2022-09-15T13:13:15.451Z,1.8
2022-09-15T13:18:38.665Z,0.9
2022-09-15T13:24:00.899Z,0.6
2022-09-15T13:29:30.523Z,0.4
2022-09-15T13:35:03.681Z,0.3
2022-09-15T13:40:43.458Z,0.3
2022-09-15T13:46:05.966Z,0.2
2022-09-15T13:51:31.557Z,0.2
2022-09-15T13:56:54.229Z,0.6
2022-09-15T14:02:17.681Z,0.7
2022-09-15T14:07:40.922Z,0.6
2022-09-15T14:13:06.198Z,0.5
2022-09-15T14:18:36.139Z,0.4
2022-09-15T14:23:58.613Z,0.6
2022-09-15T14:29:21.114Z,0.4
2022-09-15T14:40:08.689Z,0.4
2022-09-15T14:51:38.748Z,0.2
2022-09-15T14:57:01.451Z,0.2
2022-09-15T15:02:26.462Z,0.3
2022-09-15T15:07:51.918Z,0.4
2022-09-15T15:13:14.298Z,0.4
2022-09-15T15:18:44.666Z,0.4
2022-09-15T15:24:07.681Z,0.5
2022-09-15T15:29:40.639Z,0.7
2022-09-15T15:35:03.156Z,0.7
2022-09-15T15:40:25.964Z,0.8
2022-09-15T15:45:48.909Z,0.9
2022-09-15T15:51:17.604Z,0.6
2022-09-15T15:56:40.444Z,0.6
2022-09-15T16:02:05.382Z,0.5
2022-09-15T16:07:32.621Z,0.4
2022-09-15T16:12:55.929Z,0.3
2022-09-15T16:23:20.898Z,0.2
2022-09-15T16:34:13.131Z,0.1
2022-09-15T16:39:35.352Z,0.1
2022-09-15T16:44:58.719Z,0.1
2022-09-15T16:50:21.270Z,0.2
2022-09-15T16:55:43.879Z,0.2
2022-09-15T17:01:08.685Z,0.2
2022-09-15T17:06:34.755Z,0.1
2022-09-15T17:12:34.167Z,0.1
2022-09-15T17:17:59.446Z,0.1
2022-09-15T17:23:21.725Z,0.1
2022-09-15T17:28:44.187Z,0.1
2022-09-15T17:34:06.559Z,0.1
2022-09-15T17:39:29.315Z,0
2022-09-15T17:44:52.124Z,0
2022-09-15T17:50:14.649Z,0
2022-09-15T17:55:37.022Z,0
2022-09-15T18:00:59.566Z,0
2022-09-15T18:06:25.499Z,0
2022-09-15T18:11:48.191Z,0
2022-09-15T18:17:10.808Z,0
2022-09-15T18:27:56.648Z,0
2022-09-15T18:33:19.115Z,0
2022-09-15T18:44:20.325Z,0
2022-09-15T18:49:43.260Z,0
2022-09-15T18:55:05.665Z,0
2022-09-15T19:06:50.612Z,0
2022-09-15T19:12:13.201Z,0
2022-09-15T19:17:35.999Z,0
2022-09-15T19:22:58.449Z,0
2022-09-15T19:28:21.099Z,0
2022-09-15T19:33:43.434Z,0
2022-09-15T19:39:06.038Z,0
2022-09-15T19:44:28.537Z,0
2022-09-15T19:49:51.264Z,0
2022-09-15T19:55:13.602Z,0
2022-09-15T20:00:36.147Z,0
2022-09-15T20:11:26.618Z,0
2022-09-15T20:16:49.174Z,0
2022-09-15T20:22:12.755Z,0
2022-09-15T20:27:35.372Z,0
2022-09-15T20:33:05.059Z,0
2022-09-15T20:38:27.514Z,0
2022-09-15T20:43:50.015Z,0
2022-09-15T20:49:17.880Z,0
2022-09-15T20:54:40.249Z,0
2022-09-15T21:00:03.790Z,0
2022-09-15T21:05:26.688Z,0
2022-09-15T21:10:49.405Z,0
2022-09-15T21:16:12.328Z,0
2022-09-15T21:21:36.197Z,0
2022-09-15T21:26:59.985Z,0
2022-09-15T21:32:23.072Z,0
2022-09-15T21:37:45.913Z,0
2022-09-15T21:43:08.424Z,0
2022-09-15T21:48:31.047Z,0
2022-09-15T21:53:53.590Z,0
2022-09-15T21:59:17.315Z,0
2022-09-15T22:04:42.677Z,0
2022-09-15T22:10:05.404Z,0
2022-09-15T22:15:30.533Z,0
2022-09-15T22:20:54.279Z,0
2022-09-15T22:26:17.115Z,0
2022-09-15T22:31:41.885Z,0
2022-09-15T22:37:09.999Z,0
2022-09-15T22:42:32.549Z,0
2022-09-15T22:47:55.012Z,0
2022-09-15T22:53:17.779Z,0
2022-09-15T22:58:40.504Z,0
2022-09-15T23:04:03.176Z,0
2022-09-15T23:09:25.771Z,0
2022-09-15T23:14:48.391Z,0
2022-09-15T23:20:10.947Z,0
2022-09-15T23:30:56.716Z,0
2022-09-15T23:36:19.729Z,0
2022-09-15T23:41:42.392Z,0
2022-09-15T23:47:05.278Z,0
2022-09-15T23:52:28.222Z,0
2022-09-15T23:57:57.162Z,0
